Time;durP1;ratioP1;P1;durP2;ratioP2;P2;SDS_P1;SDS_P2;PMS_P1;PMS_P2;Temp;Humidity;BMP_temperature;BMP_pressure;BME280_temperature;BME280_humidity;BME280_pressure;Samples;Min_cycle;Max_cycle;Signal;HPM_P1;HPM_P2
2023/10/22 04:05:55;;;;;;;0.30;0.30;;;11.40;99.90;;;;;;5564091;23;20233;-59
2023/10/22 04:08:22;;;;;;;0.30;0.30;;;11.40;99.90;;;;;;4954553;28;20298;-59
2023/10/22 04:10:48;;;;;;;0.30;0.30;;;11.50;99.90;;;;;;4954990;28;20203;-59
2023/10/22 04:13:13;;;;;;;0.30;0.30;;;11.40;99.90;;;;;;4954605;29;20178;-59
2023/10/22 04:15:39;;;;;;;0.30;0.30;;;11.40;99.90;;;;;;4954526;29;20690;-60
2023/10/22 04:18:05;;;;;;;0.30;0.30;;;11.40;99.90;;;;;;4956365;28;20181;-60
2023/10/22 04:20:34;;;;;;;0.30;0.30;;;11.30;99.90;;;;;;4958376;29;20167;-60
2023/10/22 04:22:59;;;;;;;0.55;0.55;;;11.30;99.90;;;;;;4958190;28;20514;-60
2023/10/22 04:25:25;;;;;;;0.30;0.20;;;11.20;99.90;;;;;;4957228;29;20204;-60
2023/10/22 04:27:51;;;;;;;0.40;0.40;;;11.20;99.90;;;;;;4957295;29;20174;-60
2023/10/22 04:30:17;;;;;;;0.30;0.30;;;11.10;99.90;;;;;;4958203;29;20266;-59
2023/10/22 04:32:42;;;;;;;0.30;0.30;;;11.10;99.90;;;;;;4958009;29;20161;-60
2023/10/22 04:35:08;;;;;;;0.30;0.30;;;11.10;99.90;;;;;;4956375;28;20268;-59
2023/10/22 04:37:34;;;;;;;0.30;0.20;;;11.10;99.90;;;;;;4957902;29;20244;-60
2023/10/22 04:39:59;;;;;;;0.30;0.30;;;11.10;99.90;;;;;;4958051;29;20667;-60
2023/10/22 04:42:26;;;;;;;0.30;0.30;;;11.10;99.90;;;;;;4957909;29;20184;-60
2023/10/22 04:44:52;;;;;;;0.30;0.30;;;11.10;99.90;;;;;;4957342;29;20191;-60
2023/10/22 04:47:17;;;;;;;0.30;0.20;;;11.00;99.90;;;;;;4957995;29;20220;-59
2023/10/22 04:49:44;;;;;;;0.30;0.30;;;11.10;99.90;;;;;;4957881;29;20176;-60
2023/10/22 04:52:13;;;;;;;0.30;0.30;;;11.10;99.90;;;;;;4957415;28;20196;-60
2023/10/22 04:54:39;;;;;;;0.30;0.30;;;11.10;99.90;;;;;;4957201;28;20196;-60
2023/10/22 04:57:05;;;;;;;0.30;0.30;;;11.10;99.90;;;;;;4957210;29;20182;-60
2023/10/22 04:59:30;;;;;;;0.30;0.30;;;11.10;99.90;;;;;;4957327;29;20202;-60
2023/10/22 05:01:56;;;;;;;0.30;0.30;;;11.20;99.90;;;;;;4957474;29;20174;-60
2023/10/22 05:04:21;;;;;;;0.30;0.30;;;11.20;99.90;;;;;;4957139;29;20178;-60
2023/10/22 05:06:47;;;;;;;0.30;0.30;;;11.30;99.90;;;;;;4957222;29;20209;-60
2023/10/22 05:09:13;;;;;;;0.30;0.30;;;11.20;99.90;;;;;;4958009;29;20168;-58
2023/10/22 05:11:38;;;;;;;0.30;0.30;;;11.20;99.90;;;;;;4956047;29;20258;-60
2023/10/22 05:14:04;;;;;;;0.30;0.30;;;11.20;99.90;;;;;;4957162;29;20183;-63
2023/10/22 05:16:30;;;;;;;0.30;0.30;;;11.20;99.90;;;;;;4957186;29;20425;-60
2023/10/22 05:18:55;;;;;;;0.37;0.37;;;11.20;99.90;;;;;;4957083;29;20237;-59
2023/10/22 05:21:21;;;;;;;0.30;0.20;;;11.20;99.90;;;;;;4957275;29;20171;-60
2023/10/22 05:23:46;;;;;;;0.30;0.30;;;11.20;99.90;;;;;;4957276;29;20225;-60
2023/10/22 05:26:12;;;;;;;0.70;0.70;;;11.20;99.90;;;;;;4956709;29;20197;-60
2023/10/22 05:28:41;;;;;;;0.85;0.85;;;11.20;99.90;;;;;;4956692;28;20551;-60
2023/10/22 05:31:19;;;;;;;0.30;0.30;;;11.10;99.90;;;;;;4956836;29;20178;-60
2023/10/22 05:33:45;;;;;;;0.30;0.30;;;11.10;99.90;;;;;;4957004;28;20180;-60
2023/10/22 05:36:21;;;;;;;0.30;0.30;;;11.10;99.90;;;;;;4956391;29;20224;-60
2023/10/22 05:38:47;;;;;;;0.30;0.30;;;11.10;99.90;;;;;;4956618;29;20188;-59
2023/10/22 05:41:24;;;;;;;0.30;0.30;;;11.00;99.90;;;;;;4956652;28;20173;-60
2023/10/22 05:43:59;;;;;;;0.30;0.30;;;11.00;99.90;;;;;;4955288;29;20176;-61
2023/10/22 05:46:28;;;;;;;0.30;0.30;;;10.90;99.90;;;;;;4956602;28;20231;-61
2023/10/22 05:48:54;;;;;;;0.30;0.30;;;10.90;99.90;;;;;;4956770;29;20184;-60
2023/10/22 05:51:20;;;;;;;0.30;0.30;;;10.90;99.90;;;;;;4956740;29;20169;-59
2023/10/22 05:53:45;;;;;;;0.40;0.40;;;10.80;99.90;;;;;;4956473;29;20908;-59
2023/10/22 05:56:11;;;;;;;0.30;0.30;;;10.80;99.90;;;;;;4956281;29;20441;-59
2023/10/22 05:58:40;;;;;;;0.30;0.30;;;10.80;99.90;;;;;;4956034;29;20460;-60
2023/10/22 06:01:06;;;;;;;0.30;0.20;;;10.80;99.90;;;;;;4956368;29;20623;-59
2023/10/22 06:03:32;;;;;;;0.30;0.30;;;10.80;99.90;;;;;;4955961;28;20312;-60
2023/10/22 06:05:57;;;;;;;0.30;0.30;;;10.80;99.90;;;;;;4955795;29;20245;-59
2023/10/22 06:08:23;;;;;;;0.30;0.30;;;10.80;99.90;;;;;;4956201;29;20175;-59
2023/10/22 06:10:48;;;;;;;0.30;0.30;;;10.90;99.90;;;;;;4956314;29;20178;-60
2023/10/22 06:13:14;;;;;;;0.30;0.30;;;10.90;99.90;;;;;;4956211;29;20184;-60
2023/10/22 06:15:42;;;;;;;0.30;0.30;;;10.80;99.90;;;;;;4955796;29;20207;-59
2023/10/22 06:18:09;;;;;;;0.30;0.30;;;10.90;99.90;;;;;;4956126;28;20220;-59
2023/10/22 06:20:35;;;;;;;0.30;0.30;;;10.90;99.90;;;;;;4955925;29;20181;-61
2023/10/22 06:23:02;;;;;;;0.30;0.30;;;11.00;99.90;;;;;;4955993;28;20181;-59
2023/10/22 06:25:29;;;;;;;0.30;0.30;;;11.00;99.90;;;;;;4955418;29;20430;-59
2023/10/22 06:27:55;;;;;;;0.30;0.30;;;11.10;99.90;;;;;;4955600;28;20183;-60
2023/10/22 06:30:25;;;;;;;0.30;0.20;;;11.10;99.90;;;;;;4955571;28;20603;-63
2023/10/22 06:32:58;;;;;;;0.30;0.20;;;11.20;99.90;;;;;;4955797;28;20193;-61
2023/10/22 06:35:27;;;;;;;0.30;0.30;;;11.20;99.90;;;;;;4955430;28;20607;-60
2023/10/22 06:37:53;;;;;;;0.30;0.30;;;11.30;99.90;;;;;;4955513;28;20186;-61
2023/10/22 06:40:22;;;;;;;0.30;0.30;;;11.20;99.90;;;;;;4954667;28;20510;-62
2023/10/22 06:42:48;;;;;;;0.30;0.30;;;11.30;99.90;;;;;;4954779;28;20581;-61
2023/10/22 06:45:15;;;;;;;0.30;0.30;;;11.30;99.90;;;;;;4952887;29;20252;-62
2023/10/22 06:47:41;;;;;;;0.30;0.30;;;11.40;99.90;;;;;;4955603;28;20406;-63
2023/10/22 06:50:08;;;;;;;0.30;0.30;;;11.40;99.90;;;;;;4955770;28;20432;-62
2023/10/22 06:52:35;;;;;;;0.30;0.30;;;11.60;99.90;;;;;;4955315;29;20513;-63
2023/10/22 06:55:02;;;;;;;0.30;0.30;;;11.60;99.90;;;;;;4953827;28;20456;-61
2023/10/22 06:57:28;;;;;;;0.30;0.30;;;11.70;99.90;;;;;;4955524;29;20413;-62
2023/10/22 06:59:56;;;;;;;0.30;0.30;;;11.80;99.90;;;;;;4954867;29;20429;-62
2023/10/22 07:02:27;;;;;;;0.30;0.30;;;11.90;99.90;;;;;;4955407;28;20525;-62
2023/10/22 07:04:53;;;;;;;0.30;0.30;;;12.00;99.90;;;;;;4954966;29;20442;-62
2023/10/22 07:07:19;;;;;;;0.30;0.30;;;12.10;99.90;;;;;;4955075;29;20490;-62
2023/10/22 07:09:44;;;;;;;0.30;0.27;;;12.30;99.90;;;;;;4954629;28;21013;-63
2023/10/22 07:12:10;;;;;;;0.30;0.30;;;12.50;99.90;;;;;;4953202;29;20434;-62
2023/10/22 07:14:36;;;;;;;0.30;0.20;;;12.60;99.90;;;;;;4952657;29;20207;-62
2023/10/22 07:17:01;;;;;;;0.30;0.30;;;12.80;99.90;;;;;;4953471;28;20184;-63
2023/10/22 07:19:27;;;;;;;0.30;0.30;;;12.90;99.90;;;;;;4953470;29;20210;-62
2023/10/22 07:21:52;;;;;;;0.40;0.40;;;13.00;99.90;;;;;;4952758;29;20186;-64
2023/10/22 07:24:18;;;;;;;0.30;0.20;;;13.20;99.90;;;;;;4934400;29;20182;-64
2023/10/22 07:26:44;;;;;;;0.30;0.30;;;13.40;99.90;;;;;;4935216;29;20201;-64
2023/10/22 07:29:09;;;;;;;0.30;0.20;;;13.50;99.90;;;;;;4942613;29;20267;-63
2023/10/22 07:31:35;;;;;;;0.30;0.30;;;13.70;99.90;;;;;;4954132;29;20200;-63
2023/10/22 07:34:01;;;;;;;0.30;0.20;;;13.80;99.90;;;;;;4954787;29;20187;-62
2023/10/22 07:36:26;;;;;;;0.30;0.30;;;13.90;99.90;;;;;;4954995;28;20204;-62
2023/10/22 07:38:53;;;;;;;0.30;0.20;;;14.00;99.90;;;;;;4955073;29;20603;-65
2023/10/22 07:41:19;;;;;;;0.30;0.30;;;14.20;99.90;;;;;;4954799;29;20192;-65
2023/10/22 07:43:45;;;;;;;0.30;0.20;;;14.60;99.90;;;;;;4954632;28;20948;-66
2023/10/22 07:46:14;;;;;;;0.30;0.30;;;15.20;99.90;;;;;;4952169;29;20464;-64
2023/10/22 07:48:40;;;;;;;0.30;0.20;;;16.00;99.90;;;;;;4954998;28;20869;-63
2023/10/22 07:51:09;;;;;;;0.80;0.50;;;16.80;99.90;;;;;;4954947;28;20404;-63
2023/10/22 07:53:34;;;;;;;0.30;0.20;;;17.70;99.90;;;;;;4957814;29;20930;-67
2023/10/22 07:56:00;;;;;;;0.30;0.20;;;18.40;99.40;;;;;;4958128;29;20448;-65
2023/10/22 07:58:25;;;;;;;0.30;0.20;;;19.10;97.90;;;;;;4957138;29;20201;-65
2023/10/22 08:00:51;;;;;;;0.30;0.20;;;19.60;96.60;;;;;;4947742;29;20543;-65
2023/10/22 08:03:16;;;;;;;0.30;0.20;;;20.10;95.40;;;;;;4958337;29;20263;-63
2023/10/22 08:05:42;;;;;;;0.40;0.40;;;20.60;94.10;;;;;;4957972;29;20281;-63
2023/10/22 08:08:08;;;;;;;0.70;0.60;;;21.00;93.60;;;;;;4958237;29;20210;-66
2023/10/22 08:10:33;;;;;;;0.40;0.40;;;21.50;92.70;;;;;;4958085;29;20263;-62
2023/10/22 08:12:59;;;;;;;0.30;0.27;;;21.90;90.70;;;;;;4957677;28;20516;-62
2023/10/22 08:15:25;;;;;;;0.40;0.30;;;22.30;91.30;;;;;;4953746;28;20259;-64
2023/10/22 08:17:50;;;;;;;0.30;0.30;;;22.60;90.60;;;;;;4947714;29;20178;-63
2023/10/22 08:20:16;;;;;;;0.30;0.30;;;23.10;89.90;;;;;;4947516;29;20212;-64
2023/10/22 08:22:42;;;;;;;0.30;0.20;;;23.50;87.20;;;;;;4948118;29;20191;-64
2023/10/22 08:25:08;;;;;;;0.30;0.20;;;23.70;85.10;;;;;;4948548;29;20698;-64
2023/10/22 08:27:34;;;;;;;0.30;0.20;;;23.70;84.50;;;;;;4947695;29;20273;-64
2023/10/22 08:29:59;;;;;;;0.30;0.20;;;23.60;84.70;;;;;;4947408;28;20392;-64
2023/10/22 08:32:25;;;;;;;0.30;0.20;;;23.90;85.00;;;;;;4948269;29;20437;-66
2023/10/22 08:34:50;;;;;;;0.30;0.20;;;24.30;83.50;;;;;;4946837;29;20201;-64
2023/10/22 08:37:16;;;;;;;0.30;0.30;;;24.60;82.10;;;;;;4947755;29;20648;-64
2023/10/22 08:39:42;;;;;;;0.40;0.30;;;24.70;80.40;;;;;;4948593;28;20201;-63
2023/10/22 08:42:16;;;;;;;0.30;0.30;;;24.80;80.50;;;;;;4948377;29;20576;-63
2023/10/22 08:44:46;;;;;;;0.30;0.20;;;25.00;79.70;;;;;;4945600;29;20186;-63
2023/10/22 08:47:12;;;;;;;0.30;0.30;;;24.80;80.10;;;;;;4955309;29;20420;-63
2023/10/22 08:49:41;;;;;;;0.30;0.20;;;24.70;79.50;;;;;;4957568;28;20856;-63
2023/10/22 08:52:09;;;;;;;0.30;0.27;;;24.80;79.60;;;;;;4957575;28;20536;-66
2023/10/22 08:54:37;;;;;;;0.30;0.20;;;25.00;79.30;;;;;;4950124;29;20516;-63
2023/10/22 08:57:03;;;;;;;0.30;0.30;;;25.30;79.20;;;;;;4955605;29;20416;-64
2023/10/22 08:59:29;;;;;;;0.30;0.30;;;25.60;77.30;;;;;;4955937;29;20486;-64
2023/10/22 09:01:56;;;;;;;0.30;0.30;;;25.40;75.50;;;;;;4945292;28;20751;-64
2023/10/22 09:04:22;;;;;;;0.30;0.20;;;25.40;77.10;;;;;;4937110;29;20405;-64
2023/10/22 09:06:53;;;;;;;0.30;0.30;;;25.50;77.80;;;;;;4956344;29;20464;-65
2023/10/22 09:09:35;;;;;;;0.30;0.20;;;25.80;77.40;;;;;;4956867;28;20403;-65
2023/10/22 09:12:03;;;;;;;0.30;0.30;;;26.20;75.70;;;;;;4956414;28;20802;-65
2023/10/22 09:14:29;;;;;;;0.30;0.20;;;26.60;75.60;;;;;;4956148;28;20461;-64
2023/10/22 09:16:55;;;;;;;0.30;0.30;;;26.70;73.30;;;;;;4956427;28;20512;-66
2023/10/22 09:19:40;;;;;;;0.30;0.27;;;26.70;72.80;;;;;;4956503;28;20472;-67
2023/10/22 09:22:06;;;;;;;0.30;0.20;;;26.50;72.30;;;;;;4956192;28;20674;-63
2023/10/22 09:24:36;;;;;;;0.30;0.23;;;26.30;73.20;;;;;;4956158;28;20404;-65
2023/10/22 09:27:02;;;;;;;0.30;0.30;;;26.00;72.10;;;;;;4955843;28;20895;-64
2023/10/22 09:29:28;;;;;;;0.30;0.20;;;25.70;72.80;;;;;;4956585;29;20440;-65
2023/10/22 09:31:56;;;;;;;0.30;0.20;;;25.70;74.10;;;;;;4956768;29;20177;-65
2023/10/22 09:34:33;;;;;;;0.30;0.20;;;25.70;73.30;;;;;;4956474;29;20181;-62
2023/10/22 09:36:59;;;;;;;0.30;0.20;;;25.70;73.50;;;;;;4956675;28;20438;-65
2023/10/22 09:39:38;;;;;;;0.30;0.30;;;25.60;73.70;;;;;;4956633;28;20447;-63
2023/10/22 09:42:05;;;;;;;0.30;0.20;;;25.50;72.90;;;;;;4956711;29;20395;-65
2023/10/22 09:44:32;;;;;;;0.40;0.40;;;25.40;72.90;;;;;;4956308;29;20383;-65
2023/10/22 09:47:01;;;;;;;0.30;0.30;;;25.10;73.30;;;;;;4956764;28;20464;-63
2023/10/22 09:49:32;;;;;;;0.30;0.30;;;24.80;74.10;;;;;;4956344;28;20485;-63
2023/10/22 09:52:00;;;;;;;0.40;0.30;;;24.70;73.90;;;;;;4956396;28;20980;-67
2023/10/22 09:54:41;;;;;;;0.30;0.20;;;24.80;74.20;;;;;;4956290;29;20416;-64
2023/10/22 09:57:14;;;;;;;0.30;0.20;;;24.70;74.30;;;;;;4956506;28;20500;-64
2023/10/22 09:59:40;;;;;;;0.30;0.20;;;24.80;75.40;;;;;;4956387;29;20833;-64
2023/10/22 10:02:11;;;;;;;0.33;0.33;;;24.90;74.60;;;;;;4956183;28;20758;-64
2023/10/22 10:04:38;;;;;;;0.30;0.20;;;25.00;74.50;;;;;;4956085;29;20388;-65
2023/10/22 10:07:03;;;;;;;0.30;0.20;;;25.00;75.00;;;;;;4956061;29;20436;-63
2023/10/22 10:09:31;;;;;;;0.30;0.20;;;25.20;73.90;;;;;;4955821;28;20407;-64
2023/10/22 10:12:01;;;;;;;0.30;0.27;;;25.10;73.30;;;;;;4956346;29;20402;-63
2023/10/22 10:14:46;;;;;;;0.30;0.30;;;25.10;73.00;;;;;;4955485;28;20472;-64
2023/10/22 10:17:13;;;;;;;0.30;0.30;;;25.00;72.90;;;;;;4955741;29;20439;-64
2023/10/22 10:19:39;;;;;;;0.50;0.50;;;24.70;73.40;;;;;;4956037;28;20555;-66
2023/10/22 10:22:06;;;;;;;0.30;0.30;;;24.60;73.60;;;;;;4954784;29;20448;-65
2023/10/22 10:24:32;;;;;;;0.30;0.30;;;24.40;73.70;;;;;;4955776;29;20286;-64
2023/10/22 10:26:58;;;;;;;0.40;0.40;;;24.00;73.60;;;;;;4956068;28;20766;-64
2023/10/22 10:29:29;;;;;;;0.30;0.30;;;23.60;75.00;;;;;;4955951;29;20503;-64
2023/10/22 10:32:15;;;;;;;0.30;0.30;;;23.00;76.30;;;;;;4955806;28;20535;-64
2023/10/22 10:34:43;;;;;;;0.30;0.20;;;22.60;77.20;;;;;;4955460;28;20433;-64
2023/10/22 10:37:20;;;;;;;0.30;0.30;;;22.40;77.80;;;;;;4955894;28;20423;-63
2023/10/22 10:39:52;;;;;;;0.30;0.30;;;22.40;78.40;;;;;;4955687;29;20441;-62
2023/10/22 10:42:30;;;;;;;0.30;0.20;;;22.40;79.40;;;;;;4955832;29;20418;-62
2023/10/22 10:45:00;;;;;;;0.30;0.20;;;22.40;78.10;;;;;;4955097;28;20462;-64
2023/10/22 10:47:29;;;;;;;0.30;0.30;;;22.10;79.40;;;;;;4955581;28;20420;-64
2023/10/22 10:50:11;;;;;;;0.30;0.20;;;21.90;79.10;;;;;;4955583;28;20772;-63
2023/10/22 10:52:42;;;;;;;0.30;0.30;;;21.50;78.90;;;;;;4955779;29;20408;-64
2023/10/22 10:55:14;;;;;;;0.30;0.30;;;21.10;79.20;;;;;;4955132;29;20410;-65
2023/10/22 10:57:41;;;;;;;0.30;0.23;;;20.60;80.90;;;;;;4955518;29;20805;-64
2023/10/22 11:00:19;;;;;;;0.30;0.30;;;20.10;82.60;;;;;;4955117;29;20548;-64
2023/10/22 11:02:46;;;;;;;0.30;0.20;;;19.70;84.10;;;;;;4955242;28;20823;-62
2023/10/22 11:05:14;;;;;;;0.30;0.20;;;19.40;85.20;;;;;;4955095;29;20458;-63
2023/10/22 11:07:42;;;;;;;0.30;0.30;;;19.30;85.60;;;;;;4955416;28;20417;-63
2023/10/22 11:10:14;;;;;;;0.30;0.30;;;19.10;85.60;;;;;;4955623;29;20421;-65
2023/10/22 11:12:40;;;;;;;0.30;0.20;;;18.90;86.20;;;;;;4955367;28;20933;-64
2023/10/22 11:15:08;;;;;;;0.30;0.30;;;18.70;87.80;;;;;;4954636;28;20822;-64
2023/10/22 11:17:34;;;;;;;0.30;0.20;;;18.80;89.10;;;;;;4955299;28;20399;-64
2023/10/22 11:20:00;;;;;;;0.30;0.20;;;18.80;88.00;;;;;;4955340;29;20475;-64
2023/10/22 11:22:26;;;;;;;0.93;0.93;;;18.80;87.80;;;;;;4955395;29;20764;-63
2023/10/22 11:24:55;;;;;;;0.30;0.20;;;18.80;88.20;;;;;;4954858;29;20208;-64
2023/10/22 11:27:22;;;;;;;0.30;0.20;;;18.80;88.40;;;;;;4957517;28;20507;-63
2023/10/22 11:29:49;;;;;;;0.30;0.20;;;18.80;87.60;;;;;;4958996;29;20416;-63
2023/10/22 11:32:16;;;;;;;0.30;0.30;;;18.80;87.60;;;;;;4959025;28;20430;-63
2023/10/22 11:34:53;;;;;;;0.30;0.30;;;18.80;87.60;;;;;;4958771;29;20420;-64
2023/10/22 11:37:30;;;;;;;0.30;0.30;;;18.80;88.00;;;;;;4959221;29;20415;-64
2023/10/22 11:39:56;;;;;;;0.30;0.30;;;18.70;87.60;;;;;;4959169;28;20453;-65
2023/10/22 11:42:30;;;;;;;0.30;0.20;;;18.60;87.40;;;;;;4959123;28;20397;-62
2023/10/22 11:44:55;;;;;;;0.30;0.20;;;18.50;89.00;;;;;;4958251;28;20502;-62
2023/10/22 11:47:24;;;;;;;0.30;0.20;;;18.40;88.70;;;;;;4958562;29;20456;-63
2023/10/22 11:49:51;;;;;;;0.30;0.20;;;18.40;88.80;;;;;;4959076;28;20207;-64
2023/10/22 11:52:46;;;;;;;0.50;0.50;;;18.40;89.80;;;;;;4957449;29;20515;-63
2023/10/22 11:55:11;;;;;;;0.30;0.20;;;18.30;89.60;;;;;;4958331;28;20834;-64
2023/10/22 11:57:40;;;;;;;0.30;0.20;;;18.30;89.20;;;;;;4958813;29;20387;-64
2023/10/22 12:00:09;;;;;;;0.30;0.30;;;18.40;89.20;;;;;;4958522;29;20224;-63
2023/10/22 12:02:35;;;;;;;0.30;0.20;;;18.50;87.60;;;;;;4958555;28;20982;-63
2023/10/22 12:05:01;;;;;;;0.30;0.30;;;18.60;87.60;;;;;;4958194;29;20415;-63
2023/10/22 12:07:26;;;;;;;0.30;0.20;;;18.70;86.60;;;;;;4958454;28;20203;-64
2023/10/22 12:09:52;;;;;;;0.30;0.20;;;18.90;87.80;;;;;;4958660;29;20177;-64
2023/10/22 12:12:17;;;;;;;0.40;0.40;;;19.20;88.00;;;;;;4958523;29;20215;-65
2023/10/22 12:14:43;;;;;;;0.73;0.60;;;19.30;84.50;;;;;;4957880;28;20187;-64
2023/10/22 12:17:09;;;;;;;0.30;0.20;;;19.50;84.60;;;;;;4958078;29;20566;-63
2023/10/22 12:19:35;;;;;;;0.30;0.20;;;19.50;82.10;;;;;;4958149;28;20210;-64
2023/10/22 12:22:00;;;;;;;0.30;0.30;;;19.40;82.40;;;;;;4958227;29;20181;-65
2023/10/22 12:24:26;;;;;;;0.30;0.20;;;19.30;81.40;;;;;;4957832;29;20412;-65
2023/10/22 12:26:52;;;;;;;0.30;0.30;;;19.30;81.60;;;;;;4958140;29;20192;-64
2023/10/22 12:29:17;;;;;;;0.30;0.20;;;19.20;82.00;;;;;;4957823;29;20252;-63
2023/10/22 12:31:43;;;;;;;0.30;0.30;;;19.20;82.90;;;;;;4958060;29;20177;-63
2023/10/22 12:34:09;;;;;;;0.30;0.30;;;19.20;82.00;;;;;;4958041;29;20759;-66
2023/10/22 12:36:35;;;;;;;0.30;0.20;;;19.10;81.70;;;;;;4957959;29;20219;-64
2023/10/22 12:39:01;;;;;;;0.30;0.30;;;19.00;82.90;;;;;;4956894;28;20455;-64
2023/10/22 12:41:26;;;;;;;0.30;0.20;;;19.00;82.50;;;;;;4958087;29;20181;-64
2023/10/22 12:43:52;;;;;;;0.30;0.30;;;18.90;82.40;;;;;;4957680;29;20169;-66
2023/10/22 12:46:18;;;;;;;0.30;0.27;;;18.80;82.20;;;;;;4957946;29;20200;-63
2023/10/22 12:48:44;;;;;;;0.30;0.30;;;18.70;83.00;;;;;;4957757;29;20915;-65
2023/10/22 12:51:10;;;;;;;0.30;0.30;;;18.70;83.90;;;;;;4957658;28;20177;-62
2023/10/22 12:53:37;;;;;;;0.30;0.20;;;18.70;82.60;;;;;;4957538;28;20189;-62
2023/10/22 12:56:02;;;;;;;0.30;0.30;;;18.70;82.30;;;;;;4957508;29;20469;-63
2023/10/22 12:58:28;;;;;;;0.30;0.20;;;18.70;83.70;;;;;;4958525;29;20208;-63
2023/10/22 13:00:54;;;;;;;0.30;0.30;;;18.70;83.00;;;;;;4958444;28;20576;-63
2023/10/22 13:03:19;;;;;;;0.30;0.20;;;18.70;82.50;;;;;;4958659;29;20173;-64
2023/10/22 13:05:46;;;;;;;0.40;0.40;;;18.70;82.40;;;;;;4957868;29;20216;-65
2023/10/22 13:08:12;;;;;;;0.30;0.20;;;18.70;82.70;;;;;;4959044;29;20251;-63
2023/10/22 13:10:58;;;;;;;0.30;0.30;;;18.70;83.30;;;;;;4958692;28;21020;-64
2023/10/22 13:13:25;;;;;;;0.30;0.20;;;18.70;83.90;;;;;;4958609;28;20448;-63
2023/10/22 13:15:50;;;;;;;0.30;0.20;;;18.70;83.60;;;;;;4957322;29;20487;-63
2023/10/22 13:18:16;;;;;;;0.30;0.20;;;18.80;83.90;;;;;;4957503;29;20488;-63
2023/10/22 13:20:42;;;;;;;0.97;0.53;;;18.90;85.00;;;;;;4957146;29;20763;-64
2023/10/22 13:23:08;;;;;;;0.30;0.20;;;19.00;83.90;;;;;;4957326;29;20763;-64
2023/10/22 13:25:34;;;;;;;0.30;0.20;;;19.20;83.90;;;;;;4956656;29;20197;-63
2023/10/22 13:28:00;;;;;;;0.30;0.20;;;19.30;82.10;;;;;;4957367;29;20591;-63
2023/10/22 13:30:27;;;;;;;0.30;0.20;;;19.30;82.10;;;;;;4957058;29;20398;-64
2023/10/22 13:32:56;;;;;;;0.30;0.30;;;19.30;81.80;;;;;;4956407;29;20922;-64
2023/10/22 13:35:22;;;;;;;0.30;0.20;;;19.30;82.00;;;;;;4956606;28;20437;-64
2023/10/22 13:37:47;;;;;;;0.30;0.20;;;19.30;82.40;;;;;;4957117;29;20408;-65
2023/10/22 13:40:13;;;;;;;0.30;0.20;;;19.20;81.40;;;;;;4956848;29;20930;-64
2023/10/22 13:42:39;;;;;;;0.30;0.30;;;19.20;82.20;;;;;;4956859;29;20177;-64
2023/10/22 13:45:05;;;;;;;0.30;0.20;;;19.20;82.30;;;;;;4956331;29;20200;-64
2023/10/22 13:47:30;;;;;;;0.30;0.30;;;19.20;81.70;;;;;;4956490;28;20269;-64
2023/10/22 13:49:56;;;;;;;0.30;0.30;;;19.20;82.30;;;;;;4956520;28;20483;-64
2023/10/22 13:52:22;;;;;;;0.30;0.30;;;19.10;82.20;;;;;;4956570;29;20189;-63
2023/10/22 13:54:47;;;;;;;0.30;0.20;;;19.00;82.80;;;;;;4956339;29;20189;-64
2023/10/22 13:57:13;;;;;;;0.30;0.20;;;18.90;83.30;;;;;;4956889;29;20623;-65
2023/10/22 13:59:38;;;;;;;0.30;0.30;;;18.80;83.70;;;;;;4956507;29;20213;-63
2023/10/22 14:02:04;;;;;;;0.30;0.20;;;18.80;83.50;;;;;;4955761;29;20189;-63
2023/10/22 14:04:29;;;;;;;0.30;0.20;;;18.70;83.20;;;;;;4955816;29;20184;-65
2023/10/22 14:06:55;;;;;;;0.30;0.20;;;18.60;83.40;;;;;;4955902;29;20667;-65
2023/10/22 14:09:21;;;;;;;0.30;0.30;;;18.50;83.70;;;;;;4956730;29;20528;-65
2023/10/22 14:11:47;;;;;;;0.30;0.20;;;18.40;83.70;;;;;;4956260;29;20177;-66
2023/10/22 14:14:13;;;;;;;0.30;0.30;;;18.20;84.30;;;;;;4955938;28;20189;-63
2023/10/22 14:16:38;;;;;;;0.30;0.30;;;18.20;84.70;;;;;;4955818;29;20951;-63
2023/10/22 14:19:04;;;;;;;0.30;0.30;;;18.10;84.80;;;;;;4956255;29;20255;-63
2023/10/22 14:21:29;;;;;;;0.30;0.30;;;18.10;85.30;;;;;;4956225;29;20185;-63
2023/10/22 14:23:55;;;;;;;0.30;0.20;;;18.10;85.00;;;;;;4955936;29;20631;-64
2023/10/22 14:26:20;;;;;;;0.30;0.30;;;18.10;85.20;;;;;;4956373;29;20668;-63
2023/10/22 14:28:46;;;;;;;0.30;0.30;;;18.00;85.20;;;;;;4956226;29;20236;-64
2023/10/22 14:31:12;;;;;;;0.30;0.30;;;18.10;86.10;;;;;;4955865;29;20540;-63
2023/10/22 14:33:37;;;;;;;0.30;0.30;;;18.10;86.30;;;;;;4955883;28;20177;-64
2023/10/22 14:36:12;;;;;;;0.30;0.30;;;18.20;85.80;;;;;;4955618;29;20231;-62
2023/10/22 14:38:37;;;;;;;0.30;0.30;;;18.20;86.20;;;;;;4955861;28;20196;-63
2023/10/22 14:41:03;;;;;;;0.30;0.30;;;18.30;86.40;;;;;;4955951;29;20427;-64
2023/10/22 14:43:29;;;;;;;0.30;0.30;;;18.40;87.00;;;;;;4955972;29;20504;-64
2023/10/22 14:46:04;;;;;;;0.30;0.30;;;18.50;88.20;;;;;;4954865;29;20564;-64
2023/10/22 14:48:30;;;;;;;0.30;0.20;;;18.60;89.10;;;;;;4955310;28;20424;-64
2023/10/22 14:50:57;;;;;;;0.30;0.20;;;18.60;88.90;;;;;;4956029;29;20439;-64
2023/10/22 14:53:26;;;;;;;0.30;0.20;;;18.60;88.40;;;;;;4955794;29;20466;-65
2023/10/22 14:55:54;;;;;;;0.30;0.30;;;18.60;86.00;;;;;;4955114;28;21053;-65
2023/10/22 14:58:20;;;;;;;0.30;0.30;;;18.50;85.20;;;;;;4954711;29;20433;-63
2023/10/22 15:00:46;;;;;;;0.30;0.20;;;18.40;85.20;;;;;;4953827;28;20830;-64
2023/10/22 15:03:11;;;;;;;0.30;0.30;;;18.30;85.80;;;;;;4955124;29;20247;-64
2023/10/22 15:05:41;;;;;;;0.30;0.30;;;18.30;86.10;;;;;;4955027;29;20295;-64
2023/10/22 15:08:07;;;;;;;0.30;0.20;;;18.10;86.00;;;;;;4954910;28;20166;-64
2023/10/22 15:10:40;;;;;;;0.70;0.57;;;18.00;87.70;;;;;;4954762;29;20411;-64
2023/10/22 15:13:06;;;;;;;0.30;0.30;;;17.90;87.90;;;;;;4955469;28;20196;-65
2023/10/22 15:15:43;;;;;;;0.30;0.30;;;17.80;87.70;;;;;;4954618;29;20451;-63
2023/10/22 15:18:09;;;;;;;0.30;0.30;;;17.60;87.50;;;;;;4955542;29;20453;-63
2023/10/22 15:20:39;;;;;;;0.30;0.30;;;17.50;87.90;;;;;;4955283;29;20515;-64
2023/10/22 15:23:06;;;;;;;0.30;0.30;;;17.40;87.80;;;;;;4955496;28;20416;-63
2023/10/22 15:25:32;;;;;;;0.30;0.20;;;17.30;88.00;;;;;;4954878;28;20969;-62
2023/10/22 15:27:58;;;;;;;0.30;0.30;;;17.20;88.50;;;;;;4955352;29;20415;-63
2023/10/22 15:30:25;;;;;;;0.30;0.20;;;17.00;89.10;;;;;;4953630;29;20431;-63
2023/10/22 15:32:52;;;;;;;0.30;0.20;;;16.90;89.60;;;;;;4955048;28;20174;-62
2023/10/22 15:35:17;;;;;;;0.30;0.30;;;16.80;90.20;;;;;;4954589;29;20442;-64
2023/10/22 15:37:45;;;;;;;0.30;0.30;;;16.70;90.30;;;;;;4955208;29;20425;-64
2023/10/22 15:40:11;;;;;;;0.30;0.30;;;16.70;90.70;;;;;;4955213;28;20227;-63
2023/10/22 15:42:39;;;;;;;0.30;0.30;;;16.50;90.90;;;;;;4955177;29;20412;-63
2023/10/22 15:45:05;;;;;;;0.30;0.20;;;16.40;90.90;;;;;;4954285;28;20430;-62
2023/10/22 15:47:31;;;;;;;0.30;0.30;;;16.30;91.30;;;;;;4955217;29;20419;-63
2023/10/22 15:49:57;;;;;;;0.30;0.20;;;16.20;91.40;;;;;;4955081;29;20432;-63
2023/10/22 15:52:22;;;;;;;0.30;0.30;;;16.10;91.50;;;;;;4954802;29;20199;-62
2023/10/22 15:54:49;;;;;;;0.33;0.33;;;16.00;91.70;;;;;;4954761;29;20177;-64
2023/10/22 15:57:15;;;;;;;0.30;0.30;;;15.90;92.10;;;;;;4954997;28;20715;-63
2023/10/22 15:59:41;;;;;;;0.30;0.20;;;15.80;92.20;;;;;;4954900;29;20457;-63
2023/10/22 16:02:06;;;;;;;0.30;0.30;;;15.70;92.50;;;;;;4955311;29;20173;-63
2023/10/22 16:04:32;;;;;;;0.30;0.30;;;15.60;93.10;;;;;;4953865;29;20539;-63
2023/10/22 16:06:57;;;;;;;0.30;0.30;;;15.50;93.60;;;;;;4953641;28;20228;-63
2023/10/22 16:09:23;;;;;;;0.30;0.20;;;15.40;94.10;;;;;;4954521;29;20655;-62
2023/10/22 16:11:49;;;;;;;0.30;0.30;;;15.30;94.30;;;;;;4954156;29;20693;-66
2023/10/22 16:14:14;;;;;;;0.30;0.30;;;15.20;94.40;;;;;;4957681;28;20180;-62
2023/10/22 16:16:40;;;;;;;0.30;0.30;;;15.10;94.70;;;;;;4957662;29;20205;-63
2023/10/22 16:19:06;;;;;;;0.30;0.30;;;15.00;95.10;;;;;;4958208;29;20540;-62
2023/10/22 16:21:31;;;;;;;0.30;0.20;;;14.90;95.30;;;;;;4957692;29;20180;-63
2023/10/22 16:23:57;;;;;;;0.30;0.20;;;14.70;95.80;;;;;;4956761;29;20244;-64
2023/10/22 16:26:24;;;;;;;0.30;0.20;;;14.60;95.90;;;;;;4956288;29;20214;-62
2023/10/22 16:28:55;;;;;;;0.30;0.30;;;14.50;96.30;;;;;;4957370;28;20200;-64
2023/10/22 16:31:21;;;;;;;0.30;0.30;;;14.40;96.80;;;;;;4956420;28;20446;-61
2023/10/22 16:33:46;;;;;;;0.30;0.30;;;14.30;96.90;;;;;;4957962;29;20431;-64
2023/10/22 16:36:12;;;;;;;0.30;0.20;;;14.20;97.10;;;;;;4957401;29;20462;-62
2023/10/22 16:38:38;;;;;;;0.30;0.30;;;14.00;97.30;;;;;;4957500;28;20662;-60
2023/10/22 16:41:07;;;;;;;0.30;0.30;;;14.00;97.70;;;;;;4955495;29;20212;-61
2023/10/22 16:43:33;;;;;;;1.07;0.50;;;13.90;97.90;;;;;;4955282;29;20177;-61
2023/10/22 16:46:00;;;;;;;0.30;0.30;;;13.80;98.10;;;;;;4946311;28;20435;-61
2023/10/22 16:48:26;;;;;;;0.30;0.30;;;13.70;98.60;;;;;;4957516;28;20438;-60
2023/10/22 16:51:02;;;;;;;0.30;0.30;;;13.70;99.40;;;;;;4957112;28;20787;-62
2023/10/22 16:53:28;;;;;;;0.30;0.20;;;13.60;99.50;;;;;;4956595;29;20983;-65